sensor_id;sensor_type;location;lat;lon;timestamp;pressure;altitude;pressure_sealevel;temperature;humidity
44297;BME280;51842;47.450;8.654;2022-09-21T00:01:29;96138.72;;;8.49;79.46
44297;BME280;51842;47.450;8.654;2022-09-21T00:04:10;96137.84;;;8.43;79.85
44297;BME280;51842;47.450;8.654;2022-09-21T00:06:36;96140.13;;;8.40;80.34
44297;BME280;51842;47.450;8.654;2022-09-21T00:09:08;96137.38;;;8.34;80.50
44297;BME280;51842;47.450;8.654;2022-09-21T00:11:35;96135.41;;;8.30;80.93
44297;BME280;51842;47.450;8.654;2022-09-21T00:14:11;96134.53;;;8.24;81.55
44297;BME280;51842;47.450;8.654;2022-09-21T00:16:40;96136.25;;;8.19;81.73
44297;BME280;51842;47.450;8.654;2022-09-21T00:19:09;96141.72;;;8.12;82.07
44297;BME280;51842;47.450;8.654;2022-09-21T00:21:39;96140.47;;;8.03;82.89
44297;BME280;51842;47.450;8.654;2022-09-21T00:24:06;96138.28;;;8.00;83.16
44297;BME280;51842;47.450;8.654;2022-09-21T00:26:35;96129.41;;;7.94;83.18
44297;BME280;51842;47.450;8.654;2022-09-21T00:29:16;96131.47;;;7.92;83.46
44297;BME280;51842;47.450;8.654;2022-09-21T00:31:44;96134.13;;;7.92;83.19
44297;BME280;51842;47.450;8.654;2022-09-21T00:34:12;96131.25;;;7.94;83.22
44297;BME280;51842;47.450;8.654;2022-09-21T00:36:38;96122.72;;;7.92;83.23
44297;BME280;51842;47.450;8.654;2022-09-21T00:39:11;96122.50;;;7.93;82.64
44297;BME280;51842;47.450;8.654;2022-09-21T00:41:37;96117.19;;;7.93;83.22
44297;BME280;51842;47.450;8.654;2022-09-21T00:44:31;96121.31;;;7.89;82.92
44297;BME280;51842;47.450;8.654;2022-09-21T00:47:26;96117.53;;;7.85;83.25
44297;BME280;51842;47.450;8.654;2022-09-21T00:49:56;96121.47;;;7.82;83.35
44297;BME280;51842;47.450;8.654;2022-09-21T00:52:25;96118.25;;;7.80;83.18
44297;BME280;51842;47.450;8.654;2022-09-21T00:55:12;96116.28;;;7.76;83.47
44297;BME280;51842;47.450;8.654;2022-09-21T00:57:45;96123.00;;;7.67;83.81
44297;BME280;51842;47.450;8.654;2022-09-21T01:00:14;96121.38;;;7.65;83.75
44297;BME280;51842;47.450;8.654;2022-09-21T01:02:45;96117.34;;;7.63;84.00
44297;BME280;51842;47.450;8.654;2022-09-21T01:05:11;96097.41;;;7.60;84.03
44297;BME280;51842;47.450;8.654;2022-09-21T01:07:45;96111.38;;;7.56;84.07
44297;BME280;51842;47.450;8.654;2022-09-21T01:10:19;96110.31;;;7.57;84.15
44297;BME280;51842;47.450;8.654;2022-09-21T01:13:33;96107.66;;;7.57;84.31
44297;BME280;51842;47.450;8.654;2022-09-21T01:22:49;96100.97;;;7.54;84.35
44297;BME280;51842;47.450;8.654;2022-09-21T01:25:46;96102.84;;;7.54;84.44
44297;BME280;51842;47.450;8.654;2022-09-21T01:31:12;96101.34;;;7.46;84.92
44297;BME280;51842;47.450;8.654;2022-09-21T01:33:55;96102.97;;;7.47;84.99
44297;BME280;51842;47.450;8.654;2022-09-21T01:36:27;96097.88;;;7.46;85.09
44297;BME280;51842;47.450;8.654;2022-09-21T01:39:19;96101.22;;;7.41;85.12
44297;BME280;51842;47.450;8.654;2022-09-21T01:41:49;96104.81;;;7.35;85.23
44297;BME280;51842;47.450;8.654;2022-09-21T01:44:27;96106.88;;;7.33;85.57
44297;BME280;51842;47.450;8.654;2022-09-21T01:46:57;96105.13;;;7.27;85.66
44297;BME280;51842;47.450;8.654;2022-09-21T01:49:35;96103.78;;;7.24;85.80
44297;BME280;51842;47.450;8.654;2022-09-21T01:52:45;96103.19;;;7.22;85.57
44297;BME280;51842;47.450;8.654;2022-09-21T01:55:27;96098.22;;;7.14;86.07
44297;BME280;51842;47.450;8.654;2022-09-21T02:00:31;96100.66;;;7.04;86.26
44297;BME280;51842;47.450;8.654;2022-09-21T02:05:36;96089.00;;;7.05;85.81
44297;BME280;51842;47.450;8.654;2022-09-21T02:08:05;96102.84;;;7.07;85.49
44297;BME280;51842;47.450;8.654;2022-09-21T02:10:50;96094.88;;;7.07;85.60
44297;BME280;51842;47.450;8.654;2022-09-21T02:13:23;96091.44;;;7.06;85.33
44297;BME280;51842;47.450;8.654;2022-09-21T02:24:54;96094.19;;;7.00;85.70
44297;BME280;51842;47.450;8.654;2022-09-21T02:28:00;96095.47;;;6.97;85.65
44297;BME280;51842;47.450;8.654;2022-09-21T02:30:43;96101.66;;;6.91;85.88
44297;BME280;51842;47.450;8.654;2022-09-21T02:33:35;96097.88;;;6.87;85.93
44297;BME280;51842;47.450;8.654;2022-09-21T02:36:14;96094.44;;;6.86;85.58
44297;BME280;51842;47.450;8.654;2022-09-21T02:39:00;96098.44;;;6.89;85.33
44297;BME280;51842;47.450;8.654;2022-09-21T02:41:45;96090.50;;;6.89;85.27
44297;BME280;51842;47.450;8.654;2022-09-21T02:45:10;96093.59;;;6.86;85.38
44297;BME280;51842;47.450;8.654;2022-09-21T02:47:54;96087.94;;;6.82;85.48
44297;BME280;51842;47.450;8.654;2022-09-21T02:50:34;96094.75;;;6.78;85.47
44297;BME280;51842;47.450;8.654;2022-09-21T02:53:04;96101.66;;;6.79;85.68
44297;BME280;51842;47.450;8.654;2022-09-21T02:55:34;96095.19;;;6.75;85.68
44297;BME280;51842;47.450;8.654;2022-09-21T02:58:05;96094.50;;;6.68;86.27
44297;BME280;51842;47.450;8.654;2022-09-21T03:00:34;96092.66;;;6.68;86.25
44297;BME280;51842;47.450;8.654;2022-09-21T03:03:18;96092.75;;;6.62;86.44
44297;BME280;51842;47.450;8.654;2022-09-21T03:05:51;96094.00;;;6.59;86.49
44297;BME280;51842;47.450;8.654;2022-09-21T03:08:18;96096.53;;;6.54;86.85
44297;BME280;51842;47.450;8.654;2022-09-21T03:10:47;96099.41;;;6.53;86.62
44297;BME280;51842;47.450;8.654;2022-09-21T03:13:18;96095.22;;;6.45;87.29
44297;BME280;51842;47.450;8.654;2022-09-21T03:15:44;96096.13;;;6.39;87.59
44297;BME280;51842;47.450;8.654;2022-09-21T03:18:11;96093.38;;;6.34;87.66
44297;BME280;51842;47.450;8.654;2022-09-21T03:20:40;96097.56;;;6.23;88.47
44297;BME280;51842;47.450;8.654;2022-09-21T03:23:11;96099.06;;;6.19;88.99
44297;BME280;51842;47.450;8.654;2022-09-21T03:25:37;96106.63;;;6.15;89.21
44297;BME280;51842;47.450;8.654;2022-09-21T03:28:06;96093.50;;;6.09;89.38
44297;BME280;51842;47.450;8.654;2022-09-21T03:30:35;96104.38;;;6.00;89.72
44297;BME280;51842;47.450;8.654;2022-09-21T03:33:07;96100.13;;;5.99;89.37
44297;BME280;51842;47.450;8.654;2022-09-21T03:35:42;96099.59;;;5.91;89.83
44297;BME280;51842;47.450;8.654;2022-09-21T03:38:08;96111.28;;;5.83;90.31
44297;BME280;51842;47.450;8.654;2022-09-21T03:40:39;96110.53;;;5.76;89.50
44297;BME280;51842;47.450;8.654;2022-09-21T03:43:05;96114.13;;;5.63;90.98
44297;BME280;51842;47.450;8.654;2022-09-21T03:45:36;96113.59;;;5.54;92.00
44297;BME280;51842;47.450;8.654;2022-09-21T03:48:05;96101.88;;;5.50;92.06
44297;BME280;51842;47.450;8.654;2022-09-21T03:50:37;96111.03;;;5.48;92.32
44297;BME280;51842;47.450;8.654;2022-09-21T03:53:06;96100.91;;;5.45;92.39
44297;BME280;51842;47.450;8.654;2022-09-21T03:55:33;96108.84;;;5.45;92.29
44297;BME280;51842;47.450;8.654;2022-09-21T03:58:06;96108.47;;;5.41;91.71
44297;BME280;51842;47.450;8.654;2022-09-21T04:00:32;96111.19;;;5.34;90.97
44297;BME280;51842;47.450;8.654;2022-09-21T04:02:58;96113.53;;;5.24;91.02
44297;BME280;51842;47.450;8.654;2022-09-21T04:05:25;96109.75;;;5.14;91.57
44297;BME280;51842;47.450;8.654;2022-09-21T04:07:54;96112.06;;;5.03;91.74
44297;BME280;51842;47.450;8.654;2022-09-21T04:10:23;96115.44;;;4.92;91.35
44297;BME280;51842;47.450;8.654;2022-09-21T04:13:03;96110.03;;;4.80;91.61
44297;BME280;51842;47.450;8.654;2022-09-21T04:15:31;96109.06;;;4.75;93.05
44297;BME280;51842;47.450;8.654;2022-09-21T04:18:06;96117.03;;;4.68;94.14
44297;BME280;51842;47.450;8.654;2022-09-21T04:20:38;96115.25;;;4.62;94.23
44297;BME280;51842;47.450;8.654;2022-09-21T04:23:04;96116.47;;;4.59;95.48
44297;BME280;51842;47.450;8.654;2022-09-21T04:25:39;96111.84;;;4.55;95.74
44297;BME280;51842;47.450;8.654;2022-09-21T04:28:09;96120.19;;;4.52;95.94
44297;BME280;51842;47.450;8.654;2022-09-21T04:30:35;96112.91;;;4.47;95.96
44297;BME280;51842;47.450;8.654;2022-09-21T04:33:07;96117.00;;;4.43;95.89
44297;BME280;51842;47.450;8.654;2022-09-21T04:35:33;96119.03;;;4.41;96.36
44297;BME280;51842;47.450;8.654;2022-09-21T04:38:08;96117.22;;;4.35;97.31
44297;BME280;51842;47.450;8.654;2022-09-21T04:40:33;96113.78;;;4.34;97.41
44297;BME280;51842;47.450;8.654;2022-09-21T04:43:05;96116.84;;;4.31;97.54
44297;BME280;51842;47.450;8.654;2022-09-21T04:45:31;96111.81;;;4.30;97.63
44297;BME280;51842;47.450;8.654;2022-09-21T04:47:57;96117.28;;;4.28;97.49
44297;BME280;51842;47.450;8.654;2022-09-21T04:50:25;96118.13;;;4.22;97.81
44297;BME280;51842;47.450;8.654;2022-09-21T04:52:51;96119.34;;;4.20;98.04
44297;BME280;51842;47.450;8.654;2022-09-21T04:55:20;96118.53;;;4.19;97.99
44297;BME280;51842;47.450;8.654;2022-09-21T04:57:48;96123.63;;;4.21;98.85
44297;BME280;51842;47.450;8.654;2022-09-21T05:00:14;96120.97;;;4.21;99.00
44297;BME280;51842;47.450;8.654;2022-09-21T05:02:47;96123.78;;;4.26;99.09
44297;BME280;51842;47.450;8.654;2022-09-21T05:05:16;96122.41;;;4.23;97.72
44297;BME280;51842;47.450;8.654;2022-09-21T05:07:45;96125.88;;;4.17;97.39
44297;BME280;51842;47.450;8.654;2022-09-21T05:10:11;96124.06;;;4.11;96.87
44297;BME280;51842;47.450;8.654;2022-09-21T05:12:37;96131.00;;;4.05;96.77
44297;BME280;51842;47.450;8.654;2022-09-21T05:15:04;96130.78;;;4.00;96.91
44297;BME280;51842;47.450;8.654;2022-09-21T05:17:33;96141.75;;;3.97;97.92
44297;BME280;51842;47.450;8.654;2022-09-21T05:20:05;96137.28;;;3.98;97.20
44297;BME280;51842;47.450;8.654;2022-09-21T05:22:34;96138.53;;;3.95;97.41
44297;BME280;51842;47.450;8.654;2022-09-21T05:25:09;96144.00;;;3.93;97.13
44297;BME280;51842;47.450;8.654;2022-09-21T05:27:34;96141.78;;;3.90;96.86
44297;BME280;51842;47.450;8.654;2022-09-21T05:30:01;96139.78;;;3.86;98.06
44297;BME280;51842;47.450;8.654;2022-09-21T05:32:47;96144.84;;;3.87;98.10
44297;BME280;51842;47.450;8.654;2022-09-21T05:38:21;96139.56;;;3.87;99.35
44297;BME280;51842;47.450;8.654;2022-09-21T05:40:47;96144.84;;;3.87;99.08
44297;BME280;51842;47.450;8.654;2022-09-21T05:43:16;96149.69;;;3.90;99.41
44297;BME280;51842;47.450;8.654;2022-09-21T05:45:55;96139.78;;;3.92;99.64
44297;BME280;51842;47.450;8.654;2022-09-21T05:48:39;96145.03;;;3.92;98.45
44297;BME280;51842;47.450;8.654;2022-09-21T05:57:53;96157.63;;;3.84;98.68
44297;BME280;51842;47.450;8.654;2022-09-21T06:00:23;96151.72;;;3.88;99.26
44297;BME280;51842;47.450;8.654;2022-09-21T06:05:50;96154.56;;;3.93;99.75
44297;BME280;51842;47.450;8.654;2022-09-21T06:08:16;96152.13;;;3.99;99.79
44297;BME280;51842;47.450;8.654;2022-09-21T06:10:42;96154.34;;;4.02;99.63
44297;BME280;51842;47.450;8.654;2022-09-21T06:13:10;96149.63;;;4.04;100.00
44297;BME280;51842;47.450;8.654;2022-09-21T06:15:39;96156.84;;;4.28;100.00
44297;BME280;51842;47.450;8.654;2022-09-21T06:18:10;96147.94;;;4.61;100.00
44297;BME280;51842;47.450;8.654;2022-09-21T06:20:39;96153.03;;;4.87;100.00
44297;BME280;51842;47.450;8.654;2022-09-21T06:23:17;96151.56;;;5.17;100.00
44297;BME280;51842;47.450;8.654;2022-09-21T06:25:54;96148.16;;;5.34;100.00
44297;BME280;51842;47.450;8.654;2022-09-21T06:28:20;96157.59;;;5.49;100.00
44297;BME280;51842;47.450;8.654;2022-09-21T06:30:56;96157.47;;;5.62;100.00
44297;BME280;51842;47.450;8.654;2022-09-21T06:33:25;96150.78;;;5.78;100.00
44297;BME280;51842;47.450;8.654;2022-09-21T06:38:18;96152.69;;;6.08;97.84
44297;BME280;51842;47.450;8.654;2022-09-21T06:40:46;96145.78;;;6.25;97.17
44297;BME280;51842;47.450;8.654;2022-09-21T06:43:12;96138.75;;;6.49;96.34
44297;BME280;51842;47.450;8.654;2022-09-21T06:45:38;96148.66;;;6.84;94.59
44297;BME280;51842;47.450;8.654;2022-09-21T06:48:09;96152.84;;;7.27;91.69
44297;BME280;51842;47.450;8.654;2022-09-21T06:50:43;96143.63;;;7.64;89.01
44297;BME280;51842;47.450;8.654;2022-09-21T06:53:09;96145.66;;;7.86;86.42
44297;BME280;51842;47.450;8.654;2022-09-21T06:55:38;96144.78;;;8.21;84.99
44297;BME280;51842;47.450;8.654;2022-09-21T06:58:06;96149.72;;;8.41;83.96
44297;BME280;51842;47.450;8.654;2022-09-21T07:00:32;96147.47;;;8.78;81.75
44297;BME280;51842;47.450;8.654;2022-09-21T07:02:58;96151.09;;;8.89;80.38
44297;BME280;51842;47.450;8.654;2022-09-21T07:05:24;96155.72;;;9.27;79.96
44297;BME280;51842;47.450;8.654;2022-09-21T07:07:56;96146.91;;;9.60;77.66
44297;BME280;51842;47.450;8.654;2022-09-21T07:10:23;96155.44;;;9.79;75.80
44297;BME280;51842;47.450;8.654;2022-09-21T07:12:53;96154.47;;;10.07;74.96
44297;BME280;51842;47.450;8.654;2022-09-21T07:15:19;96154.50;;;10.29;74.12
44297;BME280;51842;47.450;8.654;2022-09-21T07:17:48;96153.22;;;10.15;73.42
44297;BME280;51842;47.450;8.654;2022-09-21T07:20:14;96157.47;;;10.33;73.65
44297;BME280;51842;47.450;8.654;2022-09-21T07:22:43;96149.16;;;10.51;71.93
44297;BME280;51842;47.450;8.654;2022-09-21T07:25:12;96153.81;;;10.39;71.25
44297;BME280;51842;47.450;8.654;2022-09-21T07:27:50;96150.59;;;10.37;72.01
44297;BME280;51842;47.450;8.654;2022-09-21T07:30:15;96150.56;;;10.86;70.94
44297;BME280;51842;47.450;8.654;2022-09-21T07:32:41;96154.25;;;11.12;69.63
44297;BME280;51842;47.450;8.654;2022-09-21T07:35:07;96152.66;;;11.11;68.76
44297;BME280;51842;47.450;8.654;2022-09-21T07:37:41;96153.44;;;11.39;68.40
44297;BME280;51842;47.450;8.654;2022-09-21T07:40:08;96157.25;;;11.53;67.69
44297;BME280;51842;47.450;8.654;2022-09-21T07:42:34;96160.25;;;11.62;66.36
44297;BME280;51842;47.450;8.654;2022-09-21T07:44:59;96158.13;;;11.64;67.02
44297;BME280;51842;47.450;8.654;2022-09-21T07:47:25;96157.16;;;11.80;66.39
44297;BME280;51842;47.450;8.654;2022-09-21T07:49:52;96145.81;;;12.00;66.20
44297;BME280;51842;47.450;8.654;2022-09-21T07:52:18;96151.31;;;12.25;63.98
44297;BME280;51842;47.450;8.654;2022-09-21T07:54:44;96159.47;;;12.03;64.49
44297;BME280;51842;47.450;8.654;2022-09-21T07:57:10;96155.22;;;12.08;64.16
44297;BME280;51842;47.450;8.654;2022-09-21T07:59:54;96155.03;;;12.24;64.58
44297;BME280;51842;47.450;8.654;2022-09-21T08:02:26;96151.13;;;12.58;63.98
44297;BME280;51842;47.450;8.654;2022-09-21T08:04:52;96153.28;;;12.66;62.28
44297;BME280;51842;47.450;8.654;2022-09-21T08:07:20;96149.00;;;12.55;63.25
44297;BME280;51842;47.450;8.654;2022-09-21T08:09:45;96140.94;;;12.44;63.06
44297;BME280;51842;47.450;8.654;2022-09-21T08:12:14;96139.69;;;12.72;62.18
44297;BME280;51842;47.450;8.654;2022-09-21T08:14:43;96145.25;;;12.66;62.40
44297;BME280;51842;47.450;8.654;2022-09-21T08:17:09;96136.19;;;12.67;62.69
44297;BME280;51842;47.450;8.654;2022-09-21T08:19:35;96141.78;;;12.65;62.00
44297;BME280;51842;47.450;8.654;2022-09-21T08:22:01;96141.84;;;12.86;62.00
44297;BME280;51842;47.450;8.654;2022-09-21T08:24:29;96131.97;;;13.02;60.92
44297;BME280;51842;47.450;8.654;2022-09-21T08:26:56;96148.03;;;13.12;60.24
44297;BME280;51842;47.450;8.654;2022-09-21T08:29:31;96141.91;;;13.27;59.33
44297;BME280;51842;47.450;8.654;2022-09-21T08:31:59;96142.72;;;13.32;59.61
44297;BME280;51842;47.450;8.654;2022-09-21T08:34:28;96148.06;;;13.48;58.25
44297;BME280;51842;47.450;8.654;2022-09-21T08:36:57;96143.78;;;13.41;57.83
44297;BME280;51842;47.450;8.654;2022-09-21T08:39:26;96148.31;;;13.51;57.91
44297;BME280;51842;47.450;8.654;2022-09-21T08:44:53;96136.53;;;13.57;56.52
44297;BME280;51842;47.450;8.654;2022-09-21T08:47:40;96139.19;;;13.73;56.51
44297;BME280;51842;47.450;8.654;2022-09-21T08:50:49;96137.84;;;13.75;56.20
44297;BME280;51842;47.450;8.654;2022-09-21T08:53:42;96150.09;;;13.97;55.79
44297;BME280;51842;47.450;8.654;2022-09-21T08:56:14;96148.00;;;13.78;56.96
44297;BME280;51842;47.450;8.654;2022-09-21T08:58:49;96148.44;;;14.21;56.45
44297;BME280;51842;47.450;8.654;2022-09-21T09:04:16;96138.72;;;14.51;54.15
44297;BME280;51842;47.450;8.654;2022-09-21T09:07:46;96137.66;;;14.37;53.79
44297;BME280;51842;47.450;8.654;2022-09-21T09:10:53;96134.91;;;14.47;54.66
44297;BME280;51842;47.450;8.654;2022-09-21T09:22:04;96132.91;;;14.78;53.58
44297;BME280;51842;47.450;8.654;2022-09-21T09:27:31;96136.06;;;14.90;52.58
44297;BME280;51842;47.450;8.654;2022-09-21T09:32:55;96129.13;;;14.79;51.64
44297;BME280;51842;47.450;8.654;2022-09-21T09:35:51;96119.78;;;14.76;52.32
44297;BME280;51842;47.450;8.654;2022-09-21T09:47:33;96113.59;;;15.79;49.65
44297;BME280;51842;47.450;8.654;2022-09-21T09:50:34;96098.81;;;15.81;48.59
44297;BME280;51842;47.450;8.654;2022-09-21T09:53:19;96086.41;;;15.85;48.02
44297;BME280;51842;47.450;8.654;2022-09-21T09:55:55;96088.81;;;16.11;48.35
44297;BME280;51842;47.450;8.654;2022-09-21T09:59:01;96094.47;;;15.85;48.04
44297;BME280;51842;47.450;8.654;2022-09-21T10:02:02;96085.78;;;15.93;47.27
44297;BME280;51842;47.450;8.654;2022-09-21T10:05:04;96083.53;;;16.01;45.59
44297;BME280;51842;47.450;8.654;2022-09-21T10:07:42;96066.97;;;15.69;46.07
44297;BME280;51842;47.450;8.654;2022-09-21T10:10:23;96081.84;;;15.57;46.68
44297;BME280;51842;47.450;8.654;2022-09-21T10:13:30;96070.63;;;15.79;46.86
44297;BME280;51842;47.450;8.654;2022-09-21T10:16:24;96064.97;;;15.80;44.60
44297;BME280;51842;47.450;8.654;2022-09-21T10:18:58;96059.78;;;16.32;45.58
44297;BME280;51842;47.450;8.654;2022-09-21T10:21:38;96064.75;;;16.62;45.47
44297;BME280;51842;47.450;8.654;2022-09-21T10:24:19;96051.94;;;16.73;43.52
44297;BME280;51842;47.450;8.654;2022-09-21T10:32:58;96060.03;;;17.25;42.34
44297;BME280;51842;47.450;8.654;2022-09-21T10:35:52;96046.34;;;16.51;42.20
44297;BME280;51842;47.450;8.654;2022-09-21T10:38:20;96047.66;;;16.53;42.40
44297;BME280;51842;47.450;8.654;2022-09-21T10:40:53;96054.19;;;17.04;43.19
44297;BME280;51842;47.450;8.654;2022-09-21T10:43:44;96059.19;;;17.57;42.40
44297;BME280;51842;47.450;8.654;2022-09-21T10:46:16;96054.91;;;17.70;41.15
44297;BME280;51842;47.450;8.654;2022-09-21T10:48:48;96058.53;;;17.79;40.26
44297;BME280;51842;47.450;8.654;2022-09-21T10:51:28;96058.47;;;17.38;40.76
44297;BME280;51842;47.450;8.654;2022-09-21T10:53:56;96067.25;;;17.10;40.88
44297;BME280;51842;47.450;8.654;2022-09-21T10:56:29;96040.47;;;16.86;41.20
44297;BME280;51842;47.450;8.654;2022-09-21T10:59:27;96048.22;;;17.07;40.36
44297;BME280;51842;47.450;8.654;2022-09-21T11:01:57;96042.03;;;17.06;40.73
44297;BME280;51842;47.450;8.654;2022-09-21T11:04:42;96046.78;;;17.42;40.19
44297;BME280;51842;47.450;8.654;2022-09-21T11:22:03;96043.28;;;18.02;38.45
44297;BME280;51842;47.450;8.654;2022-09-21T11:25:25;96042.25;;;17.70;39.08
44297;BME280;51842;47.450;8.654;2022-09-21T11:37:11;96027.00;;;18.21;38.44
44297;BME280;51842;47.450;8.654;2022-09-21T11:58:31;96007.13;;;17.01;39.63
44297;BME280;51842;47.450;8.654;2022-09-21T12:01:36;96002.63;;;16.97;38.65
44297;BME280;51842;47.450;8.654;2022-09-21T12:19:50;95997.66;;;18.42;37.51
44297;BME280;51842;47.450;8.654;2022-09-21T12:22:38;95993.41;;;18.63;37.82
44297;BME280;51842;47.450;8.654;2022-09-21T12:25:26;95995.09;;;18.37;37.94
44297;BME280;51842;47.450;8.654;2022-09-21T12:28:19;96002.66;;;17.85;38.51
44297;BME280;51842;47.450;8.654;2022-09-21T12:30:59;95999.75;;;17.95;38.94
44297;BME280;51842;47.450;8.654;2022-09-21T12:33:44;95992.97;;;17.97;37.36
44297;BME280;51842;47.450;8.654;2022-09-21T12:36:31;95986.34;;;18.17;37.76
44297;BME280;51842;47.450;8.654;2022-09-21T12:39:24;95982.66;;;18.13;38.10
44297;BME280;51842;47.450;8.654;2022-09-21T12:48:38;95979.41;;;18.61;37.14
44297;BME280;51842;47.450;8.654;2022-09-21T12:51:35;95963.44;;;18.65;36.87
44297;BME280;51842;47.450;8.654;2022-09-21T12:54:40;95960.69;;;18.79;36.97
44297;BME280;51842;47.450;8.654;2022-09-21T13:00:16;95970.06;;;19.04;36.17
44297;BME280;51842;47.450;8.654;2022-09-21T13:09:15;95966.34;;;18.55;36.78
44297;BME280;51842;47.450;8.654;2022-09-21T13:11:59;95962.22;;;18.12;37.11
44297;BME280;51842;47.450;8.654;2022-09-21T13:14:35;95973.19;;;18.52;37.29
44297;BME280;51842;47.450;8.654;2022-09-21T13:17:20;95957.19;;;18.56;37.28
44297;BME280;51842;47.450;8.654;2022-09-21T13:20:15;95957.75;;;18.89;38.15
44297;BME280;51842;47.450;8.654;2022-09-21T13:22:44;95965.34;;;19.09;39.43
44297;BME280;51842;47.450;8.654;2022-09-21T13:25:32;95965.91;;;18.75;37.34
44297;BME280;51842;47.450;8.654;2022-09-21T13:42:49;95942.00;;;17.87;40.24
44297;BME280;51842;47.450;8.654;2022-09-21T13:47:57;95959.94;;;17.92;40.60
44297;BME280;51842;47.450;8.654;2022-09-21T13:50:43;95946.09;;;17.85;40.71
44297;BME280;51842;47.450;8.654;2022-09-21T13:53:20;95953.75;;;17.64;40.93
44297;BME280;51842;47.450;8.654;2022-09-21T13:56:00;95960.34;;;17.44;40.14
44297;BME280;51842;47.450;8.654;2022-09-21T13:58:43;95945.66;;;17.22;40.49
44297;BME280;51842;47.450;8.654;2022-09-21T14:01:34;95953.53;;;17.19;40.22
44297;BME280;51842;47.450;8.654;2022-09-21T14:04:27;95942.50;;;17.62;39.48
44297;BME280;51842;47.450;8.654;2022-09-21T14:07:01;95948.66;;;17.21;40.50
44297;BME280;51842;47.450;8.654;2022-09-21T14:09:57;95953.34;;;17.70;41.97
44297;BME280;51842;47.450;8.654;2022-09-21T14:12:36;95954.03;;;18.03;40.38
44297;BME280;51842;47.450;8.654;2022-09-21T14:15:35;95933.28;;;18.26;38.53
44297;BME280;51842;47.450;8.654;2022-09-21T14:23:37;95948.69;;;17.90;39.59
44297;BME280;51842;47.450;8.654;2022-09-21T14:29:28;95959.44;;;18.03;37.97
44297;BME280;51842;47.450;8.654;2022-09-21T14:32:00;95947.69;;;18.22;38.30
44297;BME280;51842;47.450;8.654;2022-09-21T14:34:34;95942.25;;;18.36;38.21
44297;BME280;51842;47.450;8.654;2022-09-21T14:37:12;95948.34;;;18.41;38.13
44297;BME280;51842;47.450;8.654;2022-09-21T14:39:44;95953.28;;;18.25;38.58
44297;BME280;51842;47.450;8.654;2022-09-21T14:42:22;95942.50;;;18.48;38.37
44297;BME280;51842;47.450;8.654;2022-09-21T14:44:59;95941.00;;;18.56;38.23
44297;BME280;51842;47.450;8.654;2022-09-21T14:50:33;95950.09;;;18.23;38.46
44297;BME280;51842;47.450;8.654;2022-09-21T14:53:13;95946.16;;;18.30;39.20
44297;BME280;51842;47.450;8.654;2022-09-21T15:02:20;95945.81;;;18.45;38.48
44297;BME280;51842;47.450;8.654;2022-09-21T15:05:18;95944.50;;;18.56;38.93
44297;BME280;51842;47.450;8.654;2022-09-21T15:11:32;95941.13;;;18.73;39.55
44297;BME280;51842;47.450;8.654;2022-09-21T15:16:50;95947.78;;;17.80;40.36
44297;BME280;51842;47.450;8.654;2022-09-21T15:19:24;95953.06;;;17.58;39.75
44297;BME280;51842;47.450;8.654;2022-09-21T15:22:08;95949.56;;;17.71;40.07
44297;BME280;51842;47.450;8.654;2022-09-21T15:24:34;95945.78;;;17.72;40.70
44297;BME280;51842;47.450;8.654;2022-09-21T15:27:10;95956.47;;;17.77;40.79
44297;BME280;51842;47.450;8.654;2022-09-21T15:29:45;95951.59;;;17.52;40.56
44297;BME280;51842;47.450;8.654;2022-09-21T15:35:23;95945.09;;;17.80;40.18
44297;BME280;51842;47.450;8.654;2022-09-21T15:37:51;95950.16;;;17.96;40.40
44297;BME280;51842;47.450;8.654;2022-09-21T15:40:25;95954.81;;;18.18;40.09
44297;BME280;51842;47.450;8.654;2022-09-21T15:43:18;95946.66;;;18.32;40.07
44297;BME280;51842;47.450;8.654;2022-09-21T15:46:04;95948.31;;;18.19;40.51
44297;BME280;51842;47.450;8.654;2022-09-21T15:48:35;95953.59;;;18.24;39.88
44297;BME280;51842;47.450;8.654;2022-09-21T15:52:10;95942.44;;;18.39;39.46
44297;BME280;51842;47.450;8.654;2022-09-21T15:54:45;95950.31;;;18.13;40.12
44297;BME280;51842;47.450;8.654;2022-09-21T15:59:59;95963.00;;;18.13;40.53
44297;BME280;51842;47.450;8.654;2022-09-21T16:02:37;95958.75;;;17.56;40.11
44297;BME280;51842;47.450;8.654;2022-09-21T16:05:11;95959.56;;;17.43;41.32
44297;BME280;51842;47.450;8.654;2022-09-21T16:07:39;95963.94;;;17.53;41.94
44297;BME280;51842;47.450;8.654;2022-09-21T16:13:23;95966.03;;;17.56;41.24
44297;BME280;51842;47.450;8.654;2022-09-21T16:16:11;95971.13;;;17.71;41.30
44297;BME280;51842;47.450;8.654;2022-09-21T16:18:56;95978.19;;;17.67;41.39
44297;BME280;51842;47.450;8.654;2022-09-21T16:21:36;95975.28;;;17.22;41.96
44297;BME280;51842;47.450;8.654;2022-09-21T16:24:22;95979.78;;;17.41;41.79
44297;BME280;51842;47.450;8.654;2022-09-21T16:27:00;95984.28;;;17.59;41.75
44297;BME280;51842;47.450;8.654;2022-09-21T16:29:38;95987.94;;;17.08;42.23
44297;BME280;51842;47.450;8.654;2022-09-21T16:35:22;95975.44;;;16.47;43.31
44297;BME280;51842;47.450;8.654;2022-09-21T16:37:51;95978.28;;;16.17;44.95
44297;BME280;51842;47.450;8.654;2022-09-21T16:40:26;95988.81;;;15.71;45.58
44297;BME280;51842;47.450;8.654;2022-09-21T16:42:54;95987.28;;;15.60;46.03
44297;BME280;51842;47.450;8.654;2022-09-21T16:45:28;95986.97;;;15.42;46.94
44297;BME280;51842;47.450;8.654;2022-09-21T16:47:59;95990.28;;;15.05;48.09
44297;BME280;51842;47.450;8.654;2022-09-21T16:50:25;95990.03;;;14.72;48.70
44297;BME280;51842;47.450;8.654;2022-09-21T16:52:51;95998.47;;;14.50;48.73
44297;BME280;51842;47.450;8.654;2022-09-21T16:55:18;95993.50;;;14.33;49.70
44297;BME280;51842;47.450;8.654;2022-09-21T16:57:44;96005.44;;;14.07;50.62
44297;BME280;51842;47.450;8.654;2022-09-21T17:00:16;96005.72;;;14.00;51.22
44297;BME280;51842;47.450;8.654;2022-09-21T17:02:46;96005.28;;;13.83;51.24
44297;BME280;51842;47.450;8.654;2022-09-21T17:05:15;96008.03;;;13.73;52.35
44297;BME280;51842;47.450;8.654;2022-09-21T17:07:56;96004.59;;;13.52;51.64
44297;BME280;51842;47.450;8.654;2022-09-21T17:10:36;96005.97;;;13.39;52.85
44297;BME280;51842;47.450;8.654;2022-09-21T17:13:11;96014.31;;;13.27;52.97